createdAt,value
2019-06-01T00:22:57.909Z,11.20
2019-06-01T00:25:28.628Z,11.10
2019-06-01T00:27:59.385Z,11.10
2019-06-01T00:58:56.125Z,10.90
2019-06-01T01:22:28.898Z,10.30
2019-06-01T01:24:59.564Z,10.30
2019-06-01T01:27:30.168Z,10.30
2019-06-01T01:30:00.777Z,10.30
2019-06-01T01:32:31.459Z,10.30
2019-06-01T01:35:02.140Z,10.30
2019-06-01T01:37:32.947Z,10.40
2019-06-01T01:40:03.598Z,10.30
2019-06-01T01:42:34.283Z,10.30
2019-06-01T01:45:05.827Z,10.30
2019-06-01T01:47:36.484Z,10.40
2019-06-01T01:50:08.545Z,10.50
2019-06-01T01:52:39.227Z,10.60
2019-06-01T01:55:09.880Z,10.50
2019-06-01T01:57:40.819Z,10.50
2019-06-01T02:00:15.459Z,10.50
2019-06-01T02:02:46.252Z,10.50
2019-06-01T02:05:17.210Z,10.60
2019-06-01T02:07:47.949Z,10.60
2019-06-01T02:10:18.627Z,10.60
2019-06-01T02:12:49.374Z,10.50
2019-06-01T02:15:20.310Z,10.40
2019-06-01T02:17:52.042Z,10.30
2019-06-01T02:20:22.703Z,10.30
2019-06-01T02:22:54.616Z,10.40
2019-06-01T02:28:18.286Z,10.50
2019-06-01T02:30:49.191Z,10.50
2019-06-01T02:33:19.950Z,10.60
2019-06-01T02:35:50.702Z,10.60
2019-06-01T02:38:21.431Z,10.60
2019-06-01T02:40:54.736Z,10.60
2019-06-01T02:43:25.574Z,10.60
2019-06-01T02:45:56.452Z,10.70
2019-06-01T02:48:28.506Z,10.70
2019-06-01T02:50:59.882Z,10.70
2019-06-01T02:53:30.813Z,10.70
2019-06-01T02:56:02.124Z,10.60
2019-06-01T02:58:32.827Z,10.60
2019-06-01T03:01:39.339Z,10.60
2019-06-01T03:04:11.216Z,10.50
2019-06-01T03:06:43.849Z,10.50
2019-06-01T03:09:14.575Z,10.50
2019-06-01T03:11:46.344Z,10.40
2019-06-01T03:14:19.322Z,10.50
2019-06-01T03:16:51.948Z,10.50
2019-06-01T03:19:25.950Z,10.50
2019-06-01T03:22:03.103Z,10.60
2019-06-01T03:24:36.737Z,10.60
2019-06-01T03:27:08.213Z,10.60
2019-06-01T03:29:42.642Z,10.60
2019-06-01T03:32:29.453Z,10.50
2019-06-01T03:34:46.655Z,10.40
2019-06-01T03:37:17.317Z,10.50
2019-06-01T03:39:48.703Z,10.50
2019-06-01T03:42:19.557Z,10.50
2019-06-01T03:44:50.300Z,10.40
2019-06-01T03:47:23.806Z,10.40
2019-06-01T03:49:54.454Z,10.40
2019-06-01T03:52:25.234Z,10.50
2019-06-01T03:54:56.015Z,10.60
2019-06-01T03:57:26.717Z,10.60
2019-06-01T03:59:57.673Z,10.70
2019-06-01T04:02:33.067Z,10.70
2019-06-01T04:05:01.145Z,10.80
2019-06-01T04:07:32.138Z,10.80
2019-06-01T04:10:03.911Z,10.90
2019-06-01T04:12:34.691Z,11.00
2019-06-01T04:15:10.174Z,11.10
2019-06-01T04:17:38.255Z,11.20
2019-06-01T04:41:15.489Z,12.30
2019-06-01T04:43:46.218Z,12.50
2019-06-01T04:46:17.057Z,12.50
2019-06-01T04:48:47.611Z,12.60
2019-06-01T04:51:18.377Z,12.80
2019-06-01T04:53:49.256Z,12.90
2019-06-01T04:56:19.972Z,13.00
2019-06-01T04:58:50.686Z,13.00
2019-06-01T05:01:22.544Z,13.10
2019-06-01T05:03:53.395Z,13.20
2019-06-01T05:06:24.191Z,13.30
2019-06-01T05:08:54.931Z,13.30
2019-06-01T05:11:27.448Z,13.30
2019-06-01T05:13:59.154Z,13.40
2019-06-01T05:16:30.268Z,13.50
2019-06-01T05:19:01.160Z,13.60
2019-06-01T05:21:31.998Z,13.70
2019-06-01T05:24:03.149Z,13.80
2019-06-01T05:26:35.818Z,14.20
2019-06-01T05:29:07.463Z,14.50
2019-06-01T05:31:38.085Z,14.70
2019-06-01T05:34:09.709Z,14.90
2019-06-01T05:36:40.503Z,15.00
2019-06-01T05:39:12.328Z,15.20
2019-06-01T05:41:44.746Z,15.30
2019-06-01T05:44:15.477Z,15.50
2019-06-01T05:46:46.205Z,15.60
2019-06-01T05:49:16.976Z,15.80
2019-06-01T05:51:47.734Z,16.00
2019-06-01T05:54:19.517Z,16.10
2019-06-01T05:56:50.236Z,16.20
2019-06-01T05:59:22.207Z,16.40
2019-06-01T06:01:52.967Z,16.50
2019-06-01T06:04:23.694Z,16.70
2019-06-01T06:06:54.467Z,16.80
2019-06-01T06:09:25.302Z,17.00
2019-06-01T06:11:56.071Z,17.10
2019-06-01T06:14:26.779Z,17.20
2019-06-01T06:16:57.986Z,17.30
2019-06-01T06:19:28.994Z,17.40
2019-06-01T06:21:59.871Z,17.50
2019-06-01T06:24:32.209Z,17.60
2019-06-01T06:27:03.056Z,17.70
2019-06-01T06:29:34.743Z,17.80
2019-06-01T06:32:09.107Z,17.90
2019-06-01T06:34:38.961Z,18.00
2019-06-01T06:37:10.298Z,18.10
2019-06-01T06:39:42.068Z,18.20
2019-06-01T06:42:14.055Z,18.30
2019-06-01T06:44:55.820Z,18.40
2019-06-01T06:47:31.399Z,18.50
2019-06-01T06:50:03.611Z,18.70
2019-06-01T06:52:48.114Z,18.80
2019-06-01T06:55:22.092Z,19.00
2019-06-01T06:58:08.763Z,19.10
2019-06-01T09:43:16.072Z,26.00
2019-06-01T09:46:50.728Z,27.20
2019-06-01T09:50:13.204Z,28.00
2019-06-01T09:53:10.254Z,28.30
2019-06-01T10:00:43.577Z,27.30
2019-06-01T10:07:23.164Z,28.60
2019-06-01T10:13:18.392Z,29.80
2019-06-01T10:16:04.498Z,30.30
2019-06-01T10:18:39.067Z,29.80
2019-06-01T10:21:31.809Z,29.60
2019-06-01T10:24:35.123Z,29.70
2019-06-01T10:26:57.989Z,29.40
2019-06-01T10:29:36.721Z,29.10
2019-06-01T10:32:39.775Z,29.30
2019-06-01T10:35:54.022Z,29.50
2019-06-01T10:42:18.336Z,29.70
2019-06-01T10:45:37.706Z,30.10
2019-06-01T10:54:54.040Z,29.60
2019-06-01T10:58:01.141Z,30.20
2019-06-01T11:00:51.994Z,30.70
2019-06-01T11:03:54.019Z,31.40
2019-06-01T11:06:54.142Z,31.70
2019-06-01T11:12:39.161Z,31.80
2019-06-01T11:15:43.305Z,31.80
2019-06-01T11:19:08.403Z,32.00
2019-06-01T11:22:11.135Z,32.30
2019-06-01T11:27:45.762Z,31.50
2019-06-01T11:30:45.901Z,32.00
2019-06-01T11:33:47.436Z,32.30
2019-06-01T11:37:15.214Z,32.40
2019-06-01T11:40:06.695Z,32.30
2019-06-01T11:42:45.752Z,32.80
2019-06-01T11:45:19.377Z,33.70
2019-06-01T11:47:51.557Z,33.00
2019-06-01T11:50:27.093Z,32.70
2019-06-01T11:52:56.700Z,33.00
2019-06-01T11:55:27.675Z,33.30
2019-06-01T11:58:02.207Z,33.20
2019-06-01T12:00:39.522Z,33.60
2019-06-01T12:03:09.815Z,33.50
2019-06-01T12:05:42.195Z,33.50
2019-06-01T12:08:14.663Z,34.10
2019-06-01T12:10:53.451Z,34.30
2019-06-01T12:13:28.357Z,34.10
2019-06-01T12:19:23.330Z,33.70
2019-06-01T12:21:55.171Z,34.00
2019-06-01T12:24:31.467Z,34.70
2019-06-01T12:27:09.371Z,35.10
2019-06-01T12:29:44.130Z,35.20
2019-06-01T12:32:19.004Z,35.50
2019-06-01T12:34:54.836Z,35.50
2019-06-01T12:37:45.395Z,35.60
2019-06-01T12:40:09.582Z,35.80
2019-06-01T12:42:42.021Z,36.20
2019-06-01T12:45:23.074Z,36.00
2019-06-01T12:47:58.576Z,35.90
2019-06-01T12:50:29.402Z,35.90
2019-06-01T12:53:03.599Z,35.40
2019-06-01T12:55:42.573Z,35.10
2019-06-01T12:58:22.369Z,36.00
2019-06-01T13:00:56.983Z,36.10
2019-06-01T13:03:34.826Z,35.60
2019-06-01T13:06:12.029Z,35.70
2019-06-01T13:08:48.863Z,36.00
2019-06-01T13:11:21.041Z,36.50
2019-06-01T13:13:52.051Z,36.20
2019-06-01T13:16:27.110Z,35.90
2019-06-01T13:19:01.938Z,36.60
2019-06-01T13:21:38.362Z,37.20
2019-06-01T13:24:17.306Z,37.20
2019-06-01T13:26:47.692Z,37.10
2019-06-01T13:29:25.048Z,37.30
2019-06-01T13:31:58.378Z,37.00
2019-06-01T13:34:37.371Z,36.60
2019-06-01T13:37:13.938Z,36.40
2019-06-01T13:39:52.585Z,36.80
2019-06-01T13:42:36.592Z,37.40
2019-06-01T13:45:09.259Z,37.30
2019-06-01T13:47:41.593Z,37.40
2019-06-01T13:50:16.069Z,38.30
2019-06-01T13:52:52.480Z,38.60
2019-06-01T13:55:35.798Z,37.40
2019-06-01T13:58:05.574Z,37.60
2019-06-01T14:00:41.611Z,37.50
2019-06-01T14:03:18.565Z,37.70
2019-06-01T14:05:55.819Z,37.70
2019-06-01T14:08:29.383Z,37.60
2019-06-01T14:11:00.229Z,38.20
2019-06-01T14:13:37.663Z,38.50
2019-06-01T14:16:20.434Z,38.00
2019-06-01T14:18:59.462Z,38.40
2019-06-01T14:21:42.622Z,38.70
2019-06-01T14:24:15.332Z,38.60
2019-06-01T14:26:52.465Z,38.50
2019-06-01T14:29:33.133Z,38.60
2019-06-01T14:32:07.975Z,38.50
2019-06-01T14:34:42.539Z,38.60
2019-06-01T14:37:26.343Z,38.60
2019-06-01T14:40:01.034Z,38.40
2019-06-01T14:42:35.604Z,38.10
2019-06-01T14:45:08.931Z,37.70
2019-06-01T14:47:42.597Z,37.50
2019-06-01T14:50:19.448Z,37.50
2019-06-01T14:52:53.717Z,37.70
2019-06-01T14:55:27.619Z,38.00
2019-06-01T14:58:03.028Z,37.80
2019-06-01T15:00:33.703Z,37.80
2019-06-01T15:03:10.660Z,38.00
2019-06-01T15:05:48.071Z,37.80
2019-06-01T15:08:20.817Z,38.20
2019-06-01T15:10:53.301Z,38.70
2019-06-01T15:13:24.124Z,38.70
2019-06-01T15:16:01.932Z,38.50
2019-06-01T15:18:34.572Z,38.70
2019-06-01T15:21:10.085Z,38.80
2019-06-01T15:23:45.786Z,38.20
2019-06-01T15:26:19.203Z,38.00
2019-06-01T15:29:03.176Z,38.20
2019-06-01T15:31:25.783Z,38.60
2019-06-01T15:33:57.419Z,38.60
2019-06-01T15:36:32.957Z,38.60
2019-06-01T15:39:21.049Z,38.70
2019-06-01T15:41:39.631Z,39.20
2019-06-01T15:44:17.503Z,39.00
2019-06-01T15:46:53.661Z,38.40
2019-06-01T15:49:27.977Z,38.10
2019-06-01T15:52:03.046Z,38.10
2019-06-01T15:54:38.261Z,38.40
2019-06-01T15:57:11.218Z,38.50
2019-06-01T15:59:43.625Z,38.30
2019-06-01T16:02:58.991Z,38.40
2019-06-01T16:44:01.928Z,37.70
2019-06-01T16:46:37.760Z,37.30
2019-06-01T16:49:10.239Z,37.60
2019-06-01T16:51:59.006Z,37.70
2019-06-01T16:54:34.852Z,37.50
2019-06-01T16:57:11.305Z,37.10
2019-06-01T16:59:45.646Z,37.40
2019-06-01T17:02:22.845Z,37.90
2019-06-01T17:04:57.084Z,37.80
2019-06-01T17:07:44.557Z,38.00
2019-06-01T17:10:26.391Z,38.00
2019-06-01T17:12:54.272Z,37.70
2019-06-01T17:15:27.696Z,37.50
2019-06-01T17:18:02.942Z,37.20
2019-06-01T17:20:54.968Z,37.10
2019-06-01T17:23:36.122Z,36.70
2019-06-01T17:26:04.181Z,36.70
2019-06-01T17:28:37.745Z,37.60
2019-06-01T17:31:08.619Z,37.70
2019-06-01T17:33:49.946Z,37.20
2019-06-01T17:36:31.336Z,37.00
2019-06-01T17:39:08.765Z,36.90
2019-06-01T17:41:35.038Z,37.00
2019-06-01T17:44:09.218Z,37.10
2019-06-01T17:46:52.776Z,37.00
2019-06-01T17:49:19.118Z,37.00
2019-06-01T17:51:56.933Z,36.80
2019-06-01T17:54:31.390Z,36.40
2019-06-01T17:57:09.182Z,36.10
2019-06-01T17:59:41.894Z,36.00
2019-06-01T18:02:18.413Z,35.20
2019-06-01T18:04:49.228Z,34.20
2019-06-01T18:07:26.335Z,33.40
2019-06-01T18:10:06.350Z,32.50
2019-06-01T18:12:37.274Z,31.60
2019-06-01T18:15:10.576Z,31.00
2019-06-01T18:17:43.013Z,30.60
2019-06-01T18:20:16.082Z,30.10
2019-06-01T20:28:21.684Z,20.60
2019-06-01T20:30:52.816Z,20.50
2019-06-01T20:34:03.092Z,20.40
2019-06-01T20:36:37.367Z,20.20
2019-06-01T20:39:14.118Z,20.00
2019-06-01T20:41:54.920Z,20.00
2019-06-01T20:44:50.129Z,19.90
2019-06-01T20:47:27.788Z,19.80
2019-06-01T20:50:26.598Z,19.80
2019-06-01T20:53:28.920Z,19.70
2019-06-01T20:56:25.318Z,19.70
2019-06-01T20:59:13.384Z,19.60
2019-06-01T21:01:46.933Z,19.50
2019-06-01T21:04:20.398Z,19.40
2019-06-01T21:06:51.356Z,19.30
2019-06-01T21:09:41.070Z,19.20
2019-06-01T21:12:18.343Z,19.10
2019-06-01T21:14:55.115Z,19.00
2019-06-01T21:17:34.249Z,18.90
2019-06-01T21:20:24.747Z,18.90
2019-06-01T21:26:31.611Z,18.70
2019-06-01T21:29:05.256Z,18.60
2019-06-01T21:31:36.100Z,18.50
2019-06-01T23:05:33.846Z,16.50
2019-06-01T23:08:04.652Z,16.50
2019-06-01T23:10:36.311Z,16.40
2019-06-01T23:13:07.554Z,16.30
2019-06-01T23:15:42.956Z,16.30
2019-06-01T23:18:14.212Z,16.20
2019-06-01T23:20:45.473Z,16.20
2019-06-01T23:23:16.414Z,16.20
2019-06-01T23:25:47.186Z,16.20
2019-06-01T23:28:21.925Z,16.10
2019-06-01T23:30:52.905Z,16.00
2019-06-01T23:33:30.941Z,15.90
2019-06-01T23:36:01.833Z,15.90
2019-06-01T23:38:32.930Z,15.90
2019-06-01T23:41:03.755Z,15.80
2019-06-01T23:43:35.567Z,15.80
